sensor_id;sensor_type;location;lat;lon;timestamp;pressure;altitude;pressure_sealevel;temperature;humidity
60609;BME280;48221;53.528;9.884;2022-08-19T00:01:26;101218.66;;;19.28;100.00
60609;BME280;48221;53.528;9.884;2022-08-19T00:03:54;101214.25;;;19.27;100.00
60609;BME280;48221;53.528;9.884;2022-08-19T00:06:20;101210.75;;;19.27;100.00
60609;BME280;48221;53.528;9.884;2022-08-19T00:08:45;101207.22;;;19.26;100.00
60609;BME280;48221;53.528;9.884;2022-08-19T00:11:11;101194.00;;;19.24;100.00
60609;BME280;48221;53.528;9.884;2022-08-19T00:13:36;101194.88;;;19.23;100.00
60609;BME280;48221;53.528;9.884;2022-08-19T00:16:04;101200.16;;;19.20;100.00
60609;BME280;48221;53.528;9.884;2022-08-19T00:18:31;101208.13;;;19.22;100.00
60609;BME280;48221;53.528;9.884;2022-08-19T00:20:56;101213.41;;;19.22;100.00
60609;BME280;48221;53.528;9.884;2022-08-19T00:23:22;101211.63;;;19.21;100.00
60609;BME280;48221;53.528;9.884;2022-08-19T00:25:47;101211.63;;;19.21;100.00
60609;BME280;48221;53.528;9.884;2022-08-19T00:28:12;101221.34;;;19.22;100.00
60609;BME280;48221;53.528;9.884;2022-08-19T00:30:38;101212.53;;;19.23;100.00
60609;BME280;48221;53.528;9.884;2022-08-19T00:33:03;101212.50;;;19.21;100.00
60609;BME280;48221;53.528;9.884;2022-08-19T00:35:29;101212.50;;;19.24;100.00
60609;BME280;48221;53.528;9.884;2022-08-19T00:37:54;101208.13;;;19.23;100.00
60609;BME280;48221;53.528;9.884;2022-08-19T00:40:20;101208.09;;;19.25;100.00
60609;BME280;48221;53.528;9.884;2022-08-19T00:42:46;101199.28;;;19.24;100.00
60609;BME280;48221;53.528;9.884;2022-08-19T00:45:17;101182.53;;;19.19;100.00
60609;BME280;48221;53.528;9.884;2022-08-19T00:47:44;101193.13;;;19.24;100.00
60609;BME280;48221;53.528;9.884;2022-08-19T00:50:11;101188.72;;;19.24;100.00
60609;BME280;48221;53.528;9.884;2022-08-19T00:52:43;101189.59;;;19.25;100.00
60609;BME280;48221;53.528;9.884;2022-08-19T00:55:13;101193.97;;;19.26;100.00
60609;BME280;48221;53.528;9.884;2022-08-19T00:57:43;101181.66;;;19.22;100.00
60609;BME280;48221;53.528;9.884;2022-08-19T01:00:12;101188.72;;;19.23;100.00
60609;BME280;48221;53.528;9.884;2022-08-19T01:02:40;101186.97;;;19.22;100.00
60609;BME280;48221;53.528;9.884;2022-08-19T01:05:08;101185.19;;;19.22;100.00
60609;BME280;48221;53.528;9.884;2022-08-19T01:07:35;101182.53;;;19.19;100.00
60609;BME280;48221;53.528;9.884;2022-08-19T01:10:03;101194.88;;;19.23;100.00
60609;BME280;48221;53.528;9.884;2022-08-19T01:12:29;101182.53;;;19.22;100.00
60609;BME280;48221;53.528;9.884;2022-08-19T01:14:55;101190.47;;;19.21;100.00
60609;BME280;48221;53.528;9.884;2022-08-19T01:17:21;101186.06;;;19.20;100.00
60609;BME280;48221;53.528;9.884;2022-08-19T01:19:47;101176.34;;;19.20;100.00
60609;BME280;48221;53.528;9.884;2022-08-19T01:22:28;101174.59;;;19.19;100.00
60609;BME280;48221;53.528;9.884;2022-08-19T01:24:56;101174.59;;;19.21;100.00
60609;BME280;48221;53.528;9.884;2022-08-19T01:27:21;101182.53;;;19.22;100.00
60609;BME280;48221;53.528;9.884;2022-08-19T01:29:46;101184.28;;;19.20;100.00
60609;BME280;48221;53.528;9.884;2022-08-19T01:32:15;101187.81;;;19.21;100.00
60609;BME280;48221;53.528;9.884;2022-08-19T01:34:41;101184.28;;;19.20;100.00
60609;BME280;48221;53.528;9.884;2022-08-19T01:37:11;101171.97;;;19.15;100.00
60609;BME280;48221;53.528;9.884;2022-08-19T01:39:38;101172.00;;;19.12;100.00
60609;BME280;48221;53.528;9.884;2022-08-19T01:42:05;101168.47;;;19.11;100.00
60609;BME280;48221;53.528;9.884;2022-08-19T01:44:32;101173.75;;;19.13;100.00
60609;BME280;48221;53.528;9.884;2022-08-19T01:46:57;101175.53;;;19.12;100.00
60609;BME280;48221;53.528;9.884;2022-08-19T01:49:24;101162.31;;;19.11;100.00
60609;BME280;48221;53.528;9.884;2022-08-19T01:51:52;101169.34;;;19.12;100.00
60609;BME280;48221;53.528;9.884;2022-08-19T01:54:20;101164.97;;;19.11;100.00
60609;BME280;48221;53.528;9.884;2022-08-19T01:56:46;101157.00;;;19.08;100.00
60609;BME280;48221;53.528;9.884;2022-08-19T01:59:17;101157.03;;;19.05;100.00
60609;BME280;48221;53.528;9.884;2022-08-19T02:01:44;101155.28;;;19.02;100.00
60609;BME280;48221;53.528;9.884;2022-08-19T02:04:10;101163.22;;;19.02;100.00
60609;BME280;48221;53.528;9.884;2022-08-19T02:06:35;101161.44;;;19.04;100.00
60609;BME280;48221;53.528;9.884;2022-08-19T02:09:02;101164.94;;;19.06;100.00
60609;BME280;48221;53.528;9.884;2022-08-19T02:11:30;101169.38;;;19.06;100.00
60609;BME280;48221;53.528;9.884;2022-08-19T02:14:00;101161.44;;;19.06;100.00
60609;BME280;48221;53.528;9.884;2022-08-19T02:16:27;101150.84;;;19.06;100.00
60609;BME280;48221;53.528;9.884;2022-08-19T02:18:52;101142.94;;;19.03;100.00
60609;BME280;48221;53.528;9.884;2022-08-19T02:21:19;101146.47;;;19.02;100.00
60609;BME280;48221;53.528;9.884;2022-08-19T02:23:45;101132.38;;;19.00;100.00
60609;BME280;48221;53.528;9.884;2022-08-19T02:26:11;101132.38;;;19.00;100.00
60609;BME280;48221;53.528;9.884;2022-08-19T02:28:38;101120.91;;;18.98;100.00
60609;BME280;48221;53.528;9.884;2022-08-19T02:31:09;101115.63;;;18.96;100.00
60609;BME280;48221;53.528;9.884;2022-08-19T02:33:35;101123.56;;;18.94;100.00
60609;BME280;48221;53.528;9.884;2022-08-19T02:36:03;101122.69;;;18.92;100.00
60609;BME280;48221;53.528;9.884;2022-08-19T02:38:29;101121.81;;;18.90;100.00
60609;BME280;48221;53.528;9.884;2022-08-19T02:41:04;101132.41;;;18.90;100.00
60609;BME280;48221;53.528;9.884;2022-08-19T02:43:31;101129.78;;;18.89;100.00
60609;BME280;48221;53.528;9.884;2022-08-19T02:45:57;101136.81;;;18.90;100.00
60609;BME280;48221;53.528;9.884;2022-08-19T02:48:24;101128.00;;;18.89;100.00
60609;BME280;48221;53.528;9.884;2022-08-19T02:50:52;101128.00;;;18.89;100.00
60609;BME280;48221;53.528;9.884;2022-08-19T02:53:23;101128.88;;;18.91;100.00
60609;BME280;48221;53.528;9.884;2022-08-19T02:55:50;101131.50;;;18.91;100.00
60609;BME280;48221;53.528;9.884;2022-08-19T02:58:15;101133.28;;;18.92;100.00
60609;BME280;48221;53.528;9.884;2022-08-19T03:00:46;101132.38;;;18.93;100.00
60609;BME280;48221;53.528;9.884;2022-08-19T03:03:13;101135.91;;;18.92;100.00
60609;BME280;48221;53.528;9.884;2022-08-19T03:05:39;101136.81;;;18.91;100.00
60609;BME280;48221;53.528;9.884;2022-08-19T03:08:05;101140.34;;;18.90;100.00
60609;BME280;48221;53.528;9.884;2022-08-19T03:10:31;101144.75;;;18.85;100.00
60609;BME280;48221;53.528;9.884;2022-08-19T03:12:57;101150.91;;;18.86;100.00
60609;BME280;48221;53.528;9.884;2022-08-19T03:15:22;101150.91;;;18.84;100.00
60609;BME280;48221;53.528;9.884;2022-08-19T03:17:47;101146.50;;;18.85;100.00
60609;BME280;48221;53.528;9.884;2022-08-19T03:20:13;101143.00;;;18.81;100.00
60609;BME280;48221;53.528;9.884;2022-08-19T03:22:38;101135.94;;;18.80;100.00
60609;BME280;48221;53.528;9.884;2022-08-19T03:25:03;101142.13;;;18.81;100.00
60609;BME280;48221;53.528;9.884;2022-08-19T03:27:29;101136.84;;;18.78;100.00
60609;BME280;48221;53.528;9.884;2022-08-19T03:29:54;101147.41;;;18.75;100.00
60609;BME280;48221;53.528;9.884;2022-08-19T03:32:20;101141.25;;;18.71;100.00
60609;BME280;48221;53.528;9.884;2022-08-19T03:34:47;101150.94;;;18.72;100.00
60609;BME280;48221;53.528;9.884;2022-08-19T03:37:12;101148.31;;;18.71;100.00
60609;BME280;48221;53.528;9.884;2022-08-19T03:39:39;101148.31;;;18.72;100.00
60609;BME280;48221;53.528;9.884;2022-08-19T03:42:05;101154.47;;;18.73;100.00
60609;BME280;48221;53.528;9.884;2022-08-19T03:44:31;101153.59;;;18.72;100.00
60609;BME280;48221;53.528;9.884;2022-08-19T03:46:58;101158.84;;;18.75;100.00
60609;BME280;48221;53.528;9.884;2022-08-19T03:49:26;101152.72;;;18.70;100.00
60609;BME280;48221;53.528;9.884;2022-08-19T03:51:54;101154.47;;;18.70;100.00
60609;BME280;48221;53.528;9.884;2022-08-19T03:54:21;101159.78;;;18.65;100.00
60609;BME280;48221;53.528;9.884;2022-08-19T03:56:51;101153.56;;;18.63;100.00
60609;BME280;48221;53.528;9.884;2022-08-19T03:59:22;101158.03;;;18.64;100.00
60609;BME280;48221;53.528;9.884;2022-08-19T04:01:52;101160.63;;;18.62;100.00
60609;BME280;48221;53.528;9.884;2022-08-19T04:04:18;101159.75;;;18.62;100.00
60609;BME280;48221;53.528;9.884;2022-08-19T04:06:43;101148.31;;;18.57;100.00
60609;BME280;48221;53.528;9.884;2022-08-19T04:09:10;101158.00;;;18.56;100.00
60609;BME280;48221;53.528;9.884;2022-08-19T04:11:40;101168.56;;;18.56;100.00
60609;BME280;48221;53.528;9.884;2022-08-19T04:14:14;101173.00;;;18.53;100.00
60609;BME280;48221;53.528;9.884;2022-08-19T04:16:41;101161.53;;;18.49;100.00
60609;BME280;48221;53.528;9.884;2022-08-19T04:19:08;101171.22;;;18.49;100.00
60609;BME280;48221;53.528;9.884;2022-08-19T04:21:34;101179.16;;;18.47;100.00
60609;BME280;48221;53.528;9.884;2022-08-19T04:23:59;101185.31;;;18.46;100.00
60609;BME280;48221;53.528;9.884;2022-08-19T04:26:31;101188.84;;;18.47;100.00
60609;BME280;48221;53.528;9.884;2022-08-19T04:28:58;101195.88;;;18.48;100.00
60609;BME280;48221;53.528;9.884;2022-08-19T04:31:27;101191.47;;;18.48;100.00
60609;BME280;48221;53.528;9.884;2022-08-19T04:33:57;101204.69;;;18.47;100.00
60609;BME280;48221;53.528;9.884;2022-08-19T04:36:27;101201.16;;;18.48;100.00
60609;BME280;48221;53.528;9.884;2022-08-19T04:38:54;101196.75;;;18.48;100.00
60609;BME280;48221;53.528;9.884;2022-08-19T04:41:20;101194.13;;;18.45;100.00
60609;BME280;48221;53.528;9.884;2022-08-19T04:44:04;101201.16;;;18.46;100.00
60609;BME280;48221;53.528;9.884;2022-08-19T04:46:30;101203.81;;;18.45;100.00
60609;BME280;48221;53.528;9.884;2022-08-19T04:49:00;101198.50;;;18.40;100.00
60609;BME280;48221;53.528;9.884;2022-08-19T04:51:26;101206.44;;;18.40;100.00
60609;BME280;48221;53.528;9.884;2022-08-19T04:53:52;101208.22;;;18.36;100.00
60609;BME280;48221;53.528;9.884;2022-08-19T04:56:18;101208.22;;;18.36;100.00
60609;BME280;48221;53.528;9.884;2022-08-19T04:58:48;101215.25;;;18.37;100.00
60609;BME280;48221;53.528;9.884;2022-08-19T05:01:18;101207.34;;;18.36;100.00
60609;BME280;48221;53.528;9.884;2022-08-19T05:03:44;101188.84;;;18.31;100.00
60609;BME280;48221;53.528;9.884;2022-08-19T05:06:13;101204.69;;;18.34;100.00
60609;BME280;48221;53.528;9.884;2022-08-19T05:08:39;101214.38;;;18.35;100.00
60609;BME280;48221;53.528;9.884;2022-08-19T05:11:29;101211.75;;;18.35;100.00
60609;BME280;48221;53.528;9.884;2022-08-19T05:13:56;101217.03;;;18.35;100.00
60609;BME280;48221;53.528;9.884;2022-08-19T05:16:22;101221.41;;;18.36;100.00
60609;BME280;48221;53.528;9.884;2022-08-19T05:18:49;101214.38;;;18.35;100.00
60609;BME280;48221;53.528;9.884;2022-08-19T05:21:33;101212.63;;;18.36;100.00
60609;BME280;48221;53.528;9.884;2022-08-19T05:24:18;101212.63;;;18.34;100.00
60609;BME280;48221;53.528;9.884;2022-08-19T05:26:46;101217.03;;;18.34;100.00
60609;BME280;48221;53.528;9.884;2022-08-19T05:29:19;101220.53;;;18.34;100.00
60609;BME280;48221;53.528;9.884;2022-08-19T05:31:45;101219.66;;;18.34;100.00
60609;BME280;48221;53.528;9.884;2022-08-19T05:34:11;101217.03;;;18.34;100.00
60609;BME280;48221;53.528;9.884;2022-08-19T05:36:40;101227.59;;;18.32;100.00
60609;BME280;48221;53.528;9.884;2022-08-19T05:39:12;101227.59;;;18.32;100.00
60609;BME280;48221;53.528;9.884;2022-08-19T05:42:04;101230.25;;;18.32;100.00
60609;BME280;48221;53.528;9.884;2022-08-19T05:44:30;101217.03;;;18.32;100.00
60609;BME280;48221;53.528;9.884;2022-08-19T05:47:03;101224.97;;;18.31;100.00
60609;BME280;48221;53.528;9.884;2022-08-19T05:49:30;101231.09;;;18.28;100.00
60609;BME280;48221;53.528;9.884;2022-08-19T05:51:57;101235.50;;;18.28;100.00
60609;BME280;48221;53.528;9.884;2022-08-19T05:54:23;101222.31;;;18.23;100.00
60609;BME280;48221;53.528;9.884;2022-08-19T05:56:49;101221.41;;;18.27;100.00
60609;BME280;48221;53.528;9.884;2022-08-19T05:59:16;101215.25;;;18.25;100.00
60609;BME280;48221;53.528;9.884;2022-08-19T06:01:44;101209.09;;;18.20;100.00
60609;BME280;48221;53.528;9.884;2022-08-19T06:04:11;101212.63;;;18.22;100.00
60609;BME280;48221;53.528;9.884;2022-08-19T06:06:38;101216.13;;;18.23;100.00
60609;BME280;48221;53.528;9.884;2022-08-19T06:09:05;101216.13;;;18.21;100.00
60609;BME280;48221;53.528;9.884;2022-08-19T06:14:00;101217.03;;;18.20;100.00
60609;BME280;48221;53.528;9.884;2022-08-19T06:16:26;101221.41;;;18.26;100.00
60609;BME280;48221;53.528;9.884;2022-08-19T06:18:53;101218.78;;;18.26;100.00
60609;BME280;48221;53.528;9.884;2022-08-19T06:21:24;101227.59;;;18.31;100.00
60609;BME280;48221;53.528;9.884;2022-08-19T06:23:51;101225.84;;;18.31;100.00
60609;BME280;48221;53.528;9.884;2022-08-19T06:26:19;101233.75;;;18.33;100.00
60609;BME280;48221;53.528;9.884;2022-08-19T06:28:46;101230.22;;;18.35;100.00
60609;BME280;48221;53.528;9.884;2022-08-19T06:31:23;101232.00;;;18.36;100.00
60609;BME280;48221;53.528;9.884;2022-08-19T06:33:49;101234.63;;;18.33;100.00
60609;BME280;48221;53.528;9.884;2022-08-19T06:36:22;101223.19;;;18.33;100.00
60609;BME280;48221;53.528;9.884;2022-08-19T06:38:52;101213.50;;;18.30;100.00
60609;BME280;48221;53.528;9.884;2022-08-19T06:41:17;101220.53;;;18.34;100.00
60609;BME280;48221;53.528;9.884;2022-08-19T06:43:42;101224.94;;;18.35;100.00
60609;BME280;48221;53.528;9.884;2022-08-19T06:46:11;101220.53;;;18.36;100.00
60609;BME280;48221;53.528;9.884;2022-08-19T06:48:37;101222.28;;;18.38;100.00
60609;BME280;48221;53.528;9.884;2022-08-19T06:51:02;101213.50;;;18.36;100.00
60609;BME280;48221;53.528;9.884;2022-08-19T06:53:28;101215.25;;;18.37;100.00
60609;BME280;48221;53.528;9.884;2022-08-19T06:55:54;101221.44;;;18.43;100.00
60609;BME280;48221;53.528;9.884;2022-08-19T06:58:24;101213.50;;;18.43;100.00
60609;BME280;48221;53.528;9.884;2022-08-19T07:00:50;101218.78;;;18.44;100.00
60609;BME280;48221;53.528;9.884;2022-08-19T07:03:16;101208.22;;;18.43;100.00
60609;BME280;48221;53.528;9.884;2022-08-19T07:05:42;101220.56;;;18.45;100.00
60609;BME280;48221;53.528;9.884;2022-08-19T07:08:08;101219.66;;;18.48;100.00
60609;BME280;48221;53.528;9.884;2022-08-19T07:10:34;101222.31;;;18.49;100.00
60609;BME280;48221;53.528;9.884;2022-08-19T07:13:02;101221.41;;;18.50;100.00
60609;BME280;48221;53.528;9.884;2022-08-19T07:15:28;101227.59;;;18.52;100.00
60609;BME280;48221;53.528;9.884;2022-08-19T07:17:53;101220.56;;;18.56;100.00
60609;BME280;48221;53.528;9.884;2022-08-19T07:20:19;101221.41;;;18.61;100.00
60609;BME280;48221;53.528;9.884;2022-08-19T07:22:44;101215.28;;;18.65;100.00
60609;BME280;48221;53.528;9.884;2022-08-19T07:25:10;101219.69;;;18.69;100.00
60609;BME280;48221;53.528;9.884;2022-08-19T07:27:38;101223.19;;;18.73;100.00
60609;BME280;48221;53.528;9.884;2022-08-19T07:30:04;101220.56;;;18.71;100.00
60609;BME280;48221;53.528;9.884;2022-08-19T07:32:30;101232.03;;;18.78;100.00
60609;BME280;48221;53.528;9.884;2022-08-19T07:34:56;101245.22;;;18.79;100.00
60609;BME280;48221;53.528;9.884;2022-08-19T07:37:21;101249.63;;;18.83;100.00
60609;BME280;48221;53.528;9.884;2022-08-19T07:39:46;101254.03;;;18.87;100.00
60609;BME280;48221;53.528;9.884;2022-08-19T07:42:12;101253.16;;;18.88;100.00
60609;BME280;48221;53.528;9.884;2022-08-19T07:44:38;101254.91;;;18.91;100.00
60609;BME280;48221;53.528;9.884;2022-08-19T07:47:04;101261.94;;;18.93;100.00
60609;BME280;48221;53.528;9.884;2022-08-19T07:49:30;101259.31;;;18.93;100.00
60609;BME280;48221;53.528;9.884;2022-08-19T07:52:00;101264.59;;;18.90;100.00
60609;BME280;48221;53.528;9.884;2022-08-19T07:54:27;101269.00;;;18.91;100.00
60609;BME280;48221;53.528;9.884;2022-08-19T07:56:54;101269.88;;;18.93;100.00
60609;BME280;48221;53.528;9.884;2022-08-19T07:59:20;101263.75;;;18.88;100.00
60609;BME280;48221;53.528;9.884;2022-08-19T08:01:46;101262.84;;;18.89;100.00
60609;BME280;48221;53.528;9.884;2022-08-19T08:04:11;101270.75;;;18.94;100.00
60609;BME280;48221;53.528;9.884;2022-08-19T08:06:56;101276.03;;;18.95;100.00
60609;BME280;48221;53.528;9.884;2022-08-19T08:09:42;101287.50;;;18.98;100.00
60609;BME280;48221;53.528;9.884;2022-08-19T08:12:15;101288.41;;;19.00;100.00
60609;BME280;48221;53.528;9.884;2022-08-19T08:17:09;101298.97;;;19.04;100.00
60609;BME280;48221;53.528;9.884;2022-08-19T08:19:36;101291.91;;;19.03;100.00
60609;BME280;48221;53.528;9.884;2022-08-19T08:22:02;101301.63;;;19.03;100.00
60609;BME280;48221;53.528;9.884;2022-08-19T08:24:29;101286.63;;;19.02;100.00
60609;BME280;48221;53.528;9.884;2022-08-19T08:26:59;101298.09;;;19.04;100.00
60609;BME280;48221;53.528;9.884;2022-08-19T08:29:26;101298.09;;;19.01;100.00
60609;BME280;48221;53.528;9.884;2022-08-19T08:31:52;101299.88;;;18.99;100.00
60609;BME280;48221;53.528;9.884;2022-08-19T08:34:19;101295.44;;;19.04;100.00
60609;BME280;48221;53.528;9.884;2022-08-19T08:36:46;101299.84;;;19.05;100.00
60609;BME280;48221;53.528;9.884;2022-08-19T08:39:16;101295.44;;;19.07;100.00
60609;BME280;48221;53.528;9.884;2022-08-19T08:41:51;101300.69;;;19.10;100.00
60609;BME280;48221;53.528;9.884;2022-08-19T08:44:23;101307.78;;;19.11;100.00
60609;BME280;48221;53.528;9.884;2022-08-19T08:46:56;101298.06;;;19.10;100.00
60609;BME280;48221;53.528;9.884;2022-08-19T08:52:05;101298.94;;;19.18;100.00
60609;BME280;48221;53.528;9.884;2022-08-19T08:54:44;101302.47;;;19.24;100.00
60609;BME280;48221;53.528;9.884;2022-08-19T08:57:15;101298.91;;;19.30;100.00
60609;BME280;48221;53.528;9.884;2022-08-19T08:59:46;101304.19;;;19.33;100.00
60609;BME280;48221;53.528;9.884;2022-08-19T09:02:16;101301.53;;;19.33;100.00
60609;BME280;48221;53.528;9.884;2022-08-19T09:04:41;101304.19;;;19.38;100.00
60609;BME280;48221;53.528;9.884;2022-08-19T09:09:50;101307.69;;;19.47;100.00
60609;BME280;48221;53.528;9.884;2022-08-19T09:12:20;101305.94;;;19.49;100.00
60609;BME280;48221;53.528;9.884;2022-08-19T09:15:06;101304.16;;;19.48;100.00
60609;BME280;48221;53.528;9.884;2022-08-19T09:17:33;101300.66;;;19.45;100.00
60609;BME280;48221;53.528;9.884;2022-08-19T09:20:14;101313.88;;;19.46;100.00
60609;BME280;48221;53.528;9.884;2022-08-19T09:22:41;101304.16;;;19.44;100.00
60609;BME280;48221;53.528;9.884;2022-08-19T09:25:14;101309.44;;;19.44;100.00
60609;BME280;48221;53.528;9.884;2022-08-19T09:27:40;101308.56;;;19.43;100.00
60609;BME280;48221;53.528;9.884;2022-08-19T09:30:09;101305.03;;;19.44;100.00
60609;BME280;48221;53.528;9.884;2022-08-19T09:32:35;101308.56;;;19.52;100.00
60609;BME280;48221;53.528;9.884;2022-08-19T09:35:01;101301.47;;;19.54;100.00
60609;BME280;48221;53.528;9.884;2022-08-19T09:37:27;101292.66;;;19.63;100.00
60609;BME280;48221;53.528;9.884;2022-08-19T09:39:52;101295.31;;;19.69;100.00
60609;BME280;48221;53.528;9.884;2022-08-19T09:42:19;101298.78;;;19.79;100.00
60609;BME280;48221;53.528;9.884;2022-08-19T09:44:44;101299.66;;;19.81;100.00
60609;BME280;48221;53.528;9.884;2022-08-19T09:47:12;101301.44;;;19.82;100.00
60609;BME280;48221;53.528;9.884;2022-08-19T09:49:38;101295.25;;;19.80;100.00
60609;BME280;48221;53.528;9.884;2022-08-19T09:52:04;101292.63;;;19.75;100.00
60609;BME280;48221;53.528;9.884;2022-08-19T09:54:30;101300.56;;;19.77;100.00
60609;BME280;48221;53.528;9.884;2022-08-19T09:56:58;101316.44;;;19.81;100.00
60609;BME280;48221;53.528;9.884;2022-08-19T09:59:25;101306.72;;;19.76;100.00
60609;BME280;48221;53.528;9.884;2022-08-19T10:01:51;101300.59;;;19.71;100.00
60609;BME280;48221;53.528;9.884;2022-08-19T10:04:16;101302.34;;;19.73;100.00
60609;BME280;48221;53.528;9.884;2022-08-19T10:06:42;101312.91;;;19.76;100.00
60609;BME280;48221;53.528;9.884;2022-08-19T10:09:08;101297.91;;;19.77;100.00
60609;BME280;48221;53.528;9.884;2022-08-19T10:11:35;101300.56;;;19.80;100.00
60609;BME280;48221;53.528;9.884;2022-08-19T10:14:03;101300.53;;;19.83;100.00
60609;BME280;48221;53.528;9.884;2022-08-19T10:16:31;101303.19;;;19.85;100.00
60609;BME280;48221;53.528;9.884;2022-08-19T10:18:56;101299.63;;;19.89;100.00
60609;BME280;48221;53.528;9.884;2022-08-19T10:21:27;101305.81;;;19.88;100.00
60609;BME280;48221;53.528;9.884;2022-08-19T10:23:56;101310.22;;;19.93;100.00
60609;BME280;48221;53.528;9.884;2022-08-19T10:26:28;101307.53;;;19.96;100.00
60609;BME280;48221;53.528;9.884;2022-08-19T10:28:55;101311.97;;;19.94;100.00
60609;BME280;48221;53.528;9.884;2022-08-19T10:31:24;101311.97;;;19.90;100.00
60609;BME280;48221;53.528;9.884;2022-08-19T10:33:50;101305.78;;;19.91;100.00
60609;BME280;48221;53.528;9.884;2022-08-19T10:36:21;101317.28;;;19.91;100.00
60609;BME280;48221;53.528;9.884;2022-08-19T10:38:50;101308.47;;;19.86;100.00
60609;BME280;48221;53.528;9.884;2022-08-19T10:41:21;101310.19;;;19.90;100.00
60609;BME280;48221;53.528;9.884;2022-08-19T10:43:50;101309.34;;;19.87;100.00
60609;BME280;48221;53.528;9.884;2022-08-19T10:46:17;101312.00;;;19.85;100.00
60609;BME280;48221;53.528;9.884;2022-08-19T10:48:43;101307.59;;;19.86;100.00
60609;BME280;48221;53.528;9.884;2022-08-19T10:51:09;101300.50;;;19.88;100.00
60609;BME280;48221;53.528;9.884;2022-08-19T10:53:55;101297.84;;;19.91;100.00
60609;BME280;48221;53.528;9.884;2022-08-19T10:56:21;101308.44;;;19.89;100.00
60609;BME280;48221;53.528;9.884;2022-08-19T10:59:05;101287.25;;;19.92;100.00
60609;BME280;48221;53.528;9.884;2022-08-19T11:01:32;101297.84;;;19.95;100.00
60609;BME280;48221;53.528;9.884;2022-08-19T11:04:00;101297.81;;;19.98;100.00
60609;BME280;48221;53.528;9.884;2022-08-19T11:06:25;101295.16;;;20.03;100.00
60609;BME280;48221;53.528;9.884;2022-08-19T11:08:52;101294.22;;;20.08;100.00
60609;BME280;48221;53.528;9.884;2022-08-19T11:11:18;101292.41;;;20.14;100.00
60609;BME280;48221;53.528;9.884;2022-08-19T11:13:44;101289.75;;;20.20;100.00
60609;BME280;48221;53.528;9.884;2022-08-19T11:16:12;101303.84;;;20.26;100.00
60609;BME280;48221;53.528;9.884;2022-08-19T11:18:42;101294.06;;;20.33;100.00
60609;BME280;48221;53.528;9.884;2022-08-19T11:21:14;101301.09;;;20.40;100.00
60609;BME280;48221;53.528;9.884;2022-08-19T11:23:42;101306.38;;;20.49;100.00
60609;BME280;48221;53.528;9.884;2022-08-19T11:26:08;101301.84;;;20.59;100.00
60609;BME280;48221;53.528;9.884;2022-08-19T11:28:33;101303.63;;;20.61;100.00
60609;BME280;48221;53.528;9.884;2022-08-19T11:30:59;101294.78;;;20.59;100.00
60609;BME280;48221;53.528;9.884;2022-08-19T11:33:24;101297.38;;;20.68;100.00
60609;BME280;48221;53.528;9.884;2022-08-19T11:35:52;101296.41;;;20.77;100.00
60609;BME280;48221;53.528;9.884;2022-08-19T11:38:17;101294.63;;;20.79;100.00
60609;BME280;48221;53.528;9.884;2022-08-19T11:40:43;101289.31;;;20.79;100.00
60609;BME280;48221;53.528;9.884;2022-08-19T11:43:09;101286.66;;;20.81;100.00
60609;BME280;48221;53.528;9.884;2022-08-19T11:45:35;101283.97;;;20.82;100.00
60609;BME280;48221;53.528;9.884;2022-08-19T11:48:00;101291.94;;;20.82;100.00
60609;BME280;48221;53.528;9.884;2022-08-19T11:50:27;101277.81;;;20.80;100.00
60609;BME280;48221;53.528;9.884;2022-08-19T11:52:56;101275.19;;;20.77;100.00
60609;BME280;48221;53.528;9.884;2022-08-19T11:55:22;101284.06;;;20.76;100.00
60609;BME280;48221;53.528;9.884;2022-08-19T11:57:48;101289.34;;;20.76;100.00
60609;BME280;48221;53.528;9.884;2022-08-19T12:00:14;101284.13;;;20.67;100.00
60609;BME280;48221;53.528;9.884;2022-08-19T12:02:40;101284.94;;;20.72;100.00
60609;BME280;48221;53.528;9.884;2022-08-19T12:05:06;101285.78;;;20.80;100.00
60609;BME280;48221;53.528;9.884;2022-08-19T12:07:33;101282.09;;;20.93;100.00
60609;BME280;48221;53.528;9.884;2022-08-19T12:09:59;101280.22;;;21.09;100.00
60609;BME280;48221;53.528;9.884;2022-08-19T12:12:26;101291.50;;;21.30;100.00
60609;BME280;48221;53.528;9.884;2022-08-19T12:14:52;101275.34;;;21.51;100.00
60609;BME280;48221;53.528;9.884;2022-08-19T12:17:30;101280.00;;;22.03;100.00
60609;BME280;48221;53.528;9.884;2022-08-19T12:19:56;101275.72;;;22.53;100.00
60609;BME280;48221;53.528;9.884;2022-08-19T12:22:21;101281.19;;;22.97;100.00
60609;BME280;48221;53.528;9.884;2022-08-19T12:24:47;101276.81;;;23.41;100.00
60609;BME280;48221;53.528;9.884;2022-08-19T12:27:15;101262.28;;;23.99;100.00
60609;BME280;48221;53.528;9.884;2022-08-19T12:29:40;101271.63;;;24.17;100.00
60609;BME280;48221;53.528;9.884;2022-08-19T12:32:06;101276.25;;;24.10;100.00
60609;BME280;48221;53.528;9.884;2022-08-19T12:34:32;101269.59;;;24.28;100.00
60609;BME280;48221;53.528;9.884;2022-08-19T12:37:01;101264.47;;;24.58;100.00
60609;BME280;48221;53.528;9.884;2022-08-19T12:39:27;101259.84;;;24.66;100.00
60609;BME280;48221;53.528;9.884;2022-08-19T12:41:52;101261.91;;;24.55;100.00
60609;BME280;48221;53.528;9.884;2022-08-19T12:44:18;101258.66;;;24.40;100.00
60609;BME280;48221;53.528;9.884;2022-08-19T12:46:43;101258.06;;;24.28;100.00
60609;BME280;48221;53.528;9.884;2022-08-19T12:49:09;101254.75;;;24.16;100.00
60609;BME280;48221;53.528;9.884;2022-08-19T12:51:35;101262.97;;;24.09;100.00
60609;BME280;48221;53.528;9.884;2022-08-19T12:54:00;101258.78;;;23.97;100.00